createdAt,value
2023-03-29T00:00:14.567Z,10.03
2023-03-29T00:03:17.489Z,9.96
2023-03-29T00:06:22.040Z,9.91
2023-03-29T00:09:26.764Z,9.81
2023-03-29T00:12:28.992Z,9.70
2023-03-29T00:15:31.349Z,9.80
2023-03-29T00:18:33.620Z,9.82
2023-03-29T00:21:35.759Z,9.99
2023-03-29T00:24:38.015Z,9.99
2023-03-29T00:27:40.518Z,9.87
2023-03-29T00:30:42.651Z,9.76
2023-03-29T00:33:45.758Z,9.71
2023-03-29T00:36:50.994Z,9.55
2023-03-29T00:39:53.284Z,9.39
2023-03-29T00:42:58.062Z,9.27
2023-03-29T00:46:00.424Z,9.22
2023-03-29T00:49:09.339Z,9.31
2023-03-29T00:52:13.282Z,9.28
2023-03-29T00:55:18.784Z,9.39
2023-03-29T00:58:53.185Z,9.46
2023-03-29T01:02:02.352Z,9.61
2023-03-29T01:05:11.942Z,9.56
2023-03-29T01:08:21.720Z,9.57
2023-03-29T01:11:28.340Z,9.51
2023-03-29T01:14:38.153Z,9.47
2023-03-29T01:17:43.395Z,9.48
2023-03-29T01:20:55.539Z,9.64
2023-03-29T01:24:18.153Z,9.59
2023-03-29T01:27:49.837Z,9.47
2023-03-29T01:31:03.775Z,9.63
2023-03-29T01:34:11.356Z,9.60
2023-03-29T01:37:19.079Z,9.52
2023-03-29T01:40:23.530Z,9.59
2023-03-29T01:43:34.434Z,9.68
2023-03-29T01:46:39.591Z,9.63
2023-03-29T01:49:52.187Z,9.53
2023-03-29T01:53:03.610Z,9.45
2023-03-29T01:56:11.767Z,9.45
2023-03-29T01:59:18.664Z,9.27
2023-03-29T02:02:21.690Z,9.19
2023-03-29T02:05:24.532Z,9.35
2023-03-29T02:08:27.949Z,9.42
2023-03-29T02:11:33.440Z,9.36
2023-03-29T02:14:37.207Z,9.33
2023-03-29T02:17:43.682Z,9.40
2023-03-29T02:20:47.391Z,9.28
2023-03-29T02:23:50.590Z,9.21
2023-03-29T02:26:52.820Z,9.08
2023-03-29T02:29:55.195Z,8.97
2023-03-29T02:33:02.019Z,9.02
2023-03-29T02:36:14.583Z,8.88
2023-03-29T02:39:18.027Z,8.91
2023-03-29T02:42:21.106Z,9.05
2023-03-29T02:45:24.044Z,9.03
2023-03-29T02:48:27.261Z,9.21
2023-03-29T02:51:32.841Z,9.26
2023-03-29T02:54:37.914Z,9.31
2023-03-29T02:57:40.973Z,9.01
2023-03-29T03:00:46.483Z,8.87
2023-03-29T03:03:50.633Z,9.06
2023-03-29T03:06:53.401Z,9.16
2023-03-29T03:09:55.903Z,9.25
2023-03-29T03:12:58.111Z,9.30
2023-03-29T03:16:01.180Z,9.25
2023-03-29T03:19:03.840Z,9.30
2023-03-29T03:22:07.636Z,9.29
2023-03-29T03:25:13.105Z,9.21
2023-03-29T03:28:15.513Z,9.05
2023-03-29T03:31:19.567Z,9.01
2023-03-29T03:34:40.349Z,9.08
2023-03-29T03:37:42.963Z,9.07
2023-03-29T03:40:45.449Z,8.99
2023-03-29T03:43:48.992Z,9.08
2023-03-29T03:46:51.968Z,9.25
2023-03-29T03:49:54.211Z,9.25
2023-03-29T03:53:00.002Z,9.12
2023-03-29T03:56:10.761Z,9.13
2023-03-29T03:59:29.796Z,9.10
2023-03-29T04:02:37.288Z,9.05
2023-03-29T04:05:40.803Z,8.91
2023-03-29T04:08:43.841Z,8.87
2023-03-29T04:11:53.162Z,8.86
2023-03-29T04:14:55.979Z,8.87
2023-03-29T04:18:00.591Z,8.92
2023-03-29T04:21:08.842Z,8.76
2023-03-29T04:24:12.201Z,8.84
2023-03-29T04:27:17.634Z,8.78
2023-03-29T04:30:19.995Z,8.94
2023-03-29T04:33:37.418Z,9.05
2023-03-29T04:36:39.919Z,9.11
2023-03-29T04:39:49.855Z,9.15
2023-03-29T04:42:53.532Z,9.15
2023-03-29T04:45:56.914Z,9.07
2023-03-29T04:49:18.552Z,9.21
2023-03-29T04:52:24.752Z,9.31
2023-03-29T04:55:27.939Z,9.34
2023-03-29T04:58:35.570Z,9.47
2023-03-29T05:01:37.856Z,9.54
2023-03-29T05:04:41.078Z,9.60
2023-03-29T05:07:48.461Z,9.52
2023-03-29T05:10:53.502Z,9.44
2023-03-29T05:13:57.309Z,9.39
2023-03-29T05:17:05.276Z,9.35
2023-03-29T05:20:12.829Z,9.35
2023-03-29T05:23:17.520Z,9.45
2023-03-29T05:26:38.549Z,9.42
2023-03-29T05:29:44.765Z,9.36
2023-03-29T05:33:05.701Z,9.47
2023-03-29T05:36:14.062Z,9.51
2023-03-29T05:39:24.378Z,9.49
2023-03-29T05:42:27.387Z,9.53
2023-03-29T05:45:42.075Z,9.61
2023-03-29T05:48:44.353Z,9.67
2023-03-29T05:51:46.709Z,9.64
2023-03-29T05:54:49.321Z,9.74
2023-03-29T05:57:52.734Z,9.77
2023-03-29T06:01:00.510Z,9.72
2023-03-29T06:04:26.614Z,9.84
2023-03-29T06:07:50.330Z,9.86
2023-03-29T06:11:12.162Z,9.90
2023-03-29T06:14:43.107Z,9.93
2023-03-29T06:17:57.148Z,10.06
2023-03-29T06:21:03.104Z,10.17
2023-03-29T06:24:06.884Z,10.18
2023-03-29T06:27:16.246Z,10.29
2023-03-29T06:30:19.667Z,10.40
2023-03-29T06:33:26.607Z,10.48
2023-03-29T06:36:38.818Z,10.41
2023-03-29T06:39:41.714Z,10.45
2023-03-29T06:43:07.041Z,10.44
2023-03-29T06:46:41.379Z,10.52
2023-03-29T06:49:44.438Z,10.52
2023-03-29T06:53:04.347Z,10.48
2023-03-29T06:56:14.802Z,10.47
2023-03-29T06:59:18.247Z,10.62
2023-03-29T07:02:34.490Z,10.63
2023-03-29T07:05:51.848Z,10.68
2023-03-29T07:08:59.663Z,10.70
2023-03-29T07:12:24.161Z,10.71
2023-03-29T07:15:28.729Z,10.82
2023-03-29T07:18:49.514Z,10.82
2023-03-29T07:22:15.394Z,10.81
2023-03-29T07:25:30.292Z,10.84
2023-03-29T07:28:38.398Z,10.78
2023-03-29T07:31:41.955Z,10.70
2023-03-29T07:35:15.812Z,10.68
2023-03-29T07:38:18.733Z,10.67
2023-03-29T07:41:30.324Z,10.57
2023-03-29T07:44:42.605Z,10.53
2023-03-29T07:47:46.822Z,10.72
2023-03-29T07:50:53.729Z,10.66
2023-03-29T07:54:03.264Z,10.74
2023-03-29T07:57:17.142Z,10.94
2023-03-29T08:00:34.614Z,11.04
2023-03-29T08:04:18.128Z,11.23
2023-03-29T08:07:43.173Z,11.29
2023-03-29T08:11:15.244Z,11.30
2023-03-29T08:14:29.193Z,11.33
2023-03-29T08:17:42.356Z,11.39
2023-03-29T08:20:45.265Z,11.55
2023-03-29T08:23:47.722Z,11.63
2023-03-29T08:27:14.144Z,11.56
2023-03-29T08:30:20.642Z,11.62
2023-03-29T08:33:27.455Z,11.70
2023-03-29T08:36:50.518Z,11.59
2023-03-29T08:40:05.540Z,11.84
2023-03-29T08:43:35.651Z,12.10
2023-03-29T08:47:25.364Z,12.10
2023-03-29T08:50:36.679Z,12.13
2023-03-29T08:53:55.112Z,12.25
2023-03-29T08:57:12.410Z,12.35
2023-03-29T09:00:20.549Z,12.52
2023-03-29T09:03:27.277Z,12.59
2023-03-29T09:06:32.773Z,12.58
2023-03-29T09:09:49.067Z,12.56
2023-03-29T09:13:24.280Z,12.58
2023-03-29T09:17:21.505Z,12.64
2023-03-29T09:20:51.444Z,12.60
2023-03-29T09:24:36.889Z,12.70
2023-03-29T09:27:51.129Z,12.74
2023-03-29T09:31:06.276Z,12.68
2023-03-29T09:34:17.668Z,12.70
2023-03-29T09:37:34.616Z,12.72
2023-03-29T09:40:45.333Z,12.93
2023-03-29T09:43:55.391Z,13.04
2023-03-29T09:47:21.616Z,12.94
2023-03-29T09:50:37.313Z,12.95
2023-03-29T09:53:43.713Z,12.98
2023-03-29T09:57:15.710Z,13.06
2023-03-29T10:00:20.861Z,13.09
2023-03-29T10:03:26.268Z,13.07
2023-03-29T10:06:36.838Z,13.15
2023-03-29T10:09:39.422Z,13.31
2023-03-29T10:12:53.232Z,13.34
2023-03-29T10:16:09.384Z,13.36
2023-03-29T10:19:34.500Z,13.25
2023-03-29T10:22:38.252Z,13.19
2023-03-29T10:25:44.939Z,13.23
2023-03-29T10:28:53.264Z,13.32
2023-03-29T10:32:01.885Z,13.32
2023-03-29T10:35:30.512Z,13.30
2023-03-29T10:38:36.142Z,13.29
2023-03-29T10:41:38.950Z,13.39
2023-03-29T10:45:18.822Z,13.45
2023-03-29T10:48:30.237Z,13.50
2023-03-29T10:51:34.441Z,13.64
2023-03-29T10:54:37.285Z,13.79
2023-03-29T10:57:51.880Z,13.87
2023-03-29T11:00:57.656Z,13.86
2023-03-29T11:04:23.084Z,13.95
2023-03-29T11:07:34.636Z,14.02
2023-03-29T11:11:05.216Z,14.13
2023-03-29T11:14:16.100Z,14.24
2023-03-29T11:18:05.869Z,14.30
2023-03-29T11:21:19.850Z,14.40
2023-03-29T11:24:47.953Z,14.43
2023-03-29T11:28:12.092Z,14.63
2023-03-29T11:31:26.139Z,14.84
2023-03-29T11:35:01.516Z,15.00
2023-03-29T11:38:22.048Z,15.16
2023-03-29T11:41:31.785Z,15.17
2023-03-29T11:44:35.125Z,15.35
2023-03-29T11:47:39.811Z,15.48
2023-03-29T11:50:51.293Z,15.58
2023-03-29T11:54:02.079Z,15.55
2023-03-29T11:57:05.854Z,15.58
2023-03-29T12:00:15.618Z,15.55
2023-03-29T12:03:41.182Z,15.67
2023-03-29T12:06:53.345Z,15.69
2023-03-29T12:10:08.932Z,15.71
2023-03-29T12:13:32.351Z,15.63
2023-03-29T12:16:40.318Z,15.67
2023-03-29T12:19:48.805Z,15.76
2023-03-29T12:22:51.770Z,15.84
2023-03-29T12:26:12.232Z,16.01
2023-03-29T12:29:45.546Z,16.04
2023-03-29T12:32:53.412Z,16.05
2023-03-29T12:37:03.678Z,16.20
2023-03-29T12:40:23.224Z,16.28
2023-03-29T12:43:44.152Z,16.36
2023-03-29T12:47:01.497Z,16.44
2023-03-29T12:50:07.072Z,16.46
2023-03-29T12:53:23.271Z,16.48
2023-03-29T12:56:40.922Z,16.45
2023-03-29T12:59:44.556Z,16.60
2023-03-29T13:03:00.186Z,16.71
2023-03-29T13:06:05.313Z,16.79
2023-03-29T13:09:21.594Z,16.86
2023-03-29T13:12:32.941Z,16.83
2023-03-29T13:15:38.912Z,16.77
2023-03-29T13:19:01.654Z,16.71
2023-03-29T13:22:34.550Z,16.68
2023-03-29T13:25:55.605Z,16.71
2023-03-29T13:29:16.372Z,16.80
2023-03-29T13:32:22.166Z,16.80
2023-03-29T13:35:39.752Z,16.81
2023-03-29T13:38:50.658Z,16.68
2023-03-29T13:41:54.435Z,16.60
2023-03-29T13:45:26.476Z,16.57
2023-03-29T13:48:37.903Z,16.59
2023-03-29T13:51:43.194Z,16.54
2023-03-29T13:54:54.505Z,16.68
2023-03-29T13:58:02.714Z,16.69
2023-03-29T14:01:21.002Z,16.70
2023-03-29T14:04:26.981Z,16.72
2023-03-29T14:07:30.622Z,16.82
2023-03-29T14:10:40.685Z,16.94
2023-03-29T14:13:43.257Z,16.91
2023-03-29T14:16:45.681Z,16.92
2023-03-29T14:19:49.066Z,16.89
2023-03-29T14:22:51.621Z,16.88
2023-03-29T14:25:54.054Z,16.82
2023-03-29T14:28:57.657Z,16.82
2023-03-29T14:32:20.506Z,16.74
2023-03-29T14:35:29.556Z,16.67
2023-03-29T14:38:32.290Z,16.52
2023-03-29T14:41:36.820Z,16.43
2023-03-29T14:44:39.238Z,16.31
2023-03-29T14:47:42.792Z,16.22
2023-03-29T14:50:45.920Z,16.18
2023-03-29T14:53:50.854Z,16.04
2023-03-29T14:56:53.992Z,15.90
2023-03-29T15:00:00.907Z,15.81
2023-03-29T15:03:03.577Z,15.79
2023-03-29T15:06:06.338Z,15.64
2023-03-29T15:09:15.218Z,15.53
2023-03-29T15:12:17.773Z,15.39
2023-03-29T15:15:20.371Z,15.30
2023-03-29T15:18:35.112Z,15.27
2023-03-29T15:21:39.407Z,15.19
2023-03-29T15:24:48.199Z,15.13
2023-03-29T15:27:51.838Z,15.09
2023-03-29T15:31:07.672Z,15.02
2023-03-29T15:34:27.841Z,15.04
2023-03-29T15:37:30.694Z,14.99
2023-03-29T15:40:33.174Z,14.94
2023-03-29T15:43:36.260Z,14.93
2023-03-29T15:46:38.598Z,14.90
2023-03-29T15:49:41.132Z,14.97
2023-03-29T15:52:43.356Z,14.94
2023-03-29T15:55:48.256Z,14.94
2023-03-29T15:58:53.350Z,14.90
2023-03-29T16:01:56.221Z,14.93
2023-03-29T16:05:00.002Z,14.91
2023-03-29T16:08:02.279Z,14.78
2023-03-29T16:11:06.732Z,14.64
2023-03-29T16:14:12.032Z,14.76
2023-03-29T16:17:15.840Z,14.70
2023-03-29T16:20:20.093Z,14.66
2023-03-29T16:23:22.591Z,14.65
2023-03-29T16:26:26.221Z,14.61
2023-03-29T16:29:28.821Z,14.61
2023-03-29T16:32:31.395Z,14.57
2023-03-29T16:35:38.380Z,14.60
2023-03-29T16:38:40.914Z,14.63
2023-03-29T16:41:45.153Z,14.66
2023-03-29T16:44:47.298Z,14.64
2023-03-29T16:47:49.879Z,14.50
2023-03-29T16:50:52.161Z,14.57
2023-03-29T16:53:54.470Z,14.50
2023-03-29T16:56:57.742Z,14.45
2023-03-29T17:00:00.041Z,14.49
2023-03-29T17:03:02.559Z,14.49
2023-03-29T17:06:05.613Z,14.39
2023-03-29T17:09:08.103Z,14.45
2023-03-29T17:12:10.448Z,14.41
2023-03-29T17:15:12.764Z,14.27
2023-03-29T17:18:15.042Z,14.27
2023-03-29T17:21:17.403Z,14.26
2023-03-29T17:24:19.629Z,14.29
2023-03-29T17:27:21.950Z,14.24
2023-03-29T17:30:24.270Z,14.23
2023-03-29T17:33:26.493Z,14.25
2023-03-29T17:36:28.984Z,14.13
2023-03-29T17:39:32.170Z,14.14
2023-03-29T17:42:34.324Z,14.08
2023-03-29T17:45:36.614Z,13.94
2023-03-29T17:48:39.191Z,13.93
2023-03-29T17:51:41.425Z,13.92
2023-03-29T17:54:43.734Z,13.85
2023-03-29T17:57:45.858Z,13.78
2023-03-29T18:00:48.115Z,13.78
2023-03-29T18:03:50.471Z,13.75
2023-03-29T18:06:52.732Z,13.63
2023-03-29T18:09:54.889Z,13.69
2023-03-29T18:12:57.069Z,13.63
2023-03-29T18:15:59.541Z,13.60
2023-03-29T18:19:01.820Z,13.63
2023-03-29T18:22:06.621Z,13.57
2023-03-29T18:25:09.568Z,13.50
2023-03-29T18:28:11.842Z,13.51
2023-03-29T18:31:14.617Z,13.42
2023-03-29T18:34:16.847Z,13.41
2023-03-29T18:37:19.020Z,13.43
2023-03-29T18:40:24.618Z,13.34
2023-03-29T18:43:26.892Z,13.37
2023-03-29T18:46:31.368Z,13.38
2023-03-29T18:49:36.709Z,13.39
2023-03-29T18:52:39.158Z,13.34
2023-03-29T18:55:47.757Z,13.34
2023-03-29T18:58:49.949Z,13.22
2023-03-29T19:01:52.297Z,13.28
2023-03-29T19:04:54.508Z,13.19
2023-03-29T19:07:57.606Z,13.18
2023-03-29T19:11:07.795Z,13.21
2023-03-29T19:14:10.009Z,13.14
2023-03-29T19:17:12.505Z,13.12
2023-03-29T19:20:14.814Z,13.23
2023-03-29T19:23:18.311Z,13.17
2023-03-29T19:26:20.684Z,13.19
2023-03-29T19:29:23.586Z,13.07
2023-03-29T19:32:25.825Z,13.08
2023-03-29T19:35:28.221Z,13.11
2023-03-29T19:38:30.545Z,13.10
2023-03-29T19:41:32.869Z,13.08
2023-03-29T19:44:38.257Z,13.15
2023-03-29T19:47:42.973Z,13.18
2023-03-29T19:50:45.936Z,13.11
2023-03-29T19:53:48.653Z,13.15
2023-03-29T19:56:52.843Z,13.06
2023-03-29T19:59:55.701Z,13.04
2023-03-29T20:02:58.494Z,13.03
2023-03-29T20:06:00.935Z,13.10
2023-03-29T20:09:05.246Z,13.05
2023-03-29T20:12:07.845Z,13.02
2023-03-29T20:15:10.530Z,13.08
2023-03-29T20:18:12.917Z,12.99
2023-03-29T20:21:18.720Z,13.18
2023-03-29T20:24:22.202Z,13.19
2023-03-29T20:27:25.478Z,13.15
2023-03-29T20:30:27.749Z,13.19
2023-03-29T20:33:30.049Z,13.30
2023-03-29T20:36:32.329Z,13.27
2023-03-29T20:39:34.624Z,13.27
2023-03-29T20:42:38.255Z,13.35
2023-03-29T20:45:52.096Z,13.36
2023-03-29T20:48:56.091Z,13.38
2023-03-29T20:51:58.867Z,13.34
2023-03-29T20:55:01.248Z,13.32
2023-03-29T20:58:03.822Z,13.29
2023-03-29T21:01:06.447Z,13.25
2023-03-29T21:04:10.829Z,13.29
2023-03-29T21:07:17.239Z,13.28
2023-03-29T21:10:19.565Z,13.31
2023-03-29T21:13:22.177Z,13.26
2023-03-29T21:16:25.375Z,13.30
2023-03-29T21:19:27.880Z,13.25
2023-03-29T21:22:31.167Z,13.29
2023-03-29T21:25:33.523Z,13.23
2023-03-29T21:28:37.673Z,13.29
2023-03-29T21:31:40.720Z,13.30
2023-03-29T21:34:42.971Z,13.22
2023-03-29T21:37:45.141Z,13.25
2023-03-29T21:40:47.422Z,13.12
2023-03-29T21:43:49.607Z,13.19
2023-03-29T21:46:52.399Z,13.27
2023-03-29T21:49:54.552Z,13.29
2023-03-29T21:52:56.767Z,13.23
2023-03-29T21:55:58.997Z,13.26
2023-03-29T21:59:01.640Z,13.22
2023-03-29T22:02:03.942Z,13.25
2023-03-29T22:05:09.437Z,13.25
2023-03-29T22:08:12.018Z,13.23
2023-03-29T22:11:16.252Z,13.32
2023-03-29T22:14:19.478Z,13.21
2023-03-29T22:17:26.849Z,13.27
2023-03-29T22:20:29.668Z,13.21
2023-03-29T22:23:32.078Z,13.20
2023-03-29T22:26:34.768Z,13.20
2023-03-29T22:29:37.370Z,13.17
2023-03-29T22:32:40.354Z,13.18
2023-03-29T22:35:42.713Z,13.07
2023-03-29T22:38:46.214Z,13.14
2023-03-29T22:41:48.828Z,13.04
2023-03-29T22:44:54.021Z,13.06
2023-03-29T22:47:56.717Z,13.05
2023-03-29T22:50:59.712Z,13.01
2023-03-29T22:54:02.075Z,13.02
2023-03-29T22:57:04.567Z,13.05
2023-03-29T23:00:09.278Z,13.04
2023-03-29T23:03:11.817Z,13.02
2023-03-29T23:06:14.084Z,13.00
2023-03-29T23:09:16.711Z,12.99
2023-03-29T23:12:19.087Z,13.01
2023-03-29T23:15:22.969Z,12.91
2023-03-29T23:18:26.585Z,12.87
2023-03-29T23:21:28.839Z,12.88
2023-03-29T23:24:47.849Z,12.87
2023-03-29T23:27:50.365Z,12.94
2023-03-29T23:31:03.216Z,12.90
2023-03-29T23:34:05.799Z,12.87
2023-03-29T23:37:08.121Z,12.87
2023-03-29T23:40:14.277Z,12.90
2023-03-29T23:43:17.080Z,12.87
2023-03-29T23:46:19.370Z,12.87
2023-03-29T23:49:22.835Z,12.88
2023-03-29T23:52:25.995Z,12.80
2023-03-29T23:55:28.423Z,12.87
2023-03-29T23:58:33.051Z,12.82
